Time;durP1;ratioP1;P1;durP2;ratioP2;P2;SDS_P1;SDS_P2;PMS_P1;PMS_P2;Temp;Humidity;BMP_temperature;BMP_pressure;BME280_temperature;BME280_humidity;BME280_pressure;Samples;Min_cycle;Max_cycle;Signal;HPM_P1;HPM_P2
2022/06/04 00:02:13;;;;;;;16.25;11.52;;;;;;;22.06;48.03;102123.19;5076099;28;20044;-48
2022/06/04 00:04:40;;;;;;;16.63;10.60;;;;;;;22.05;48.48;102124.19;5074178;28;20094;-49
2022/06/04 00:07:08;;;;;;;15.95;10.73;;;;;;;22.04;48.36;102124.34;5078735;28;20048;-49
2022/06/04 00:09:35;;;;;;;16.10;10.52;;;;;;;22.03;48.38;102123.50;5071268;28;20062;-48
2022/06/04 00:17:52;;;;;;;17.55;11.43;;;;;;;22.00;48.36;102131.88;5019641;28;20042;-49
2022/06/04 00:20:18;;;;;;;15.55;10.05;;;;;;;22.00;48.55;102133.75;5020777;28;20048;-47
2022/06/04 00:22:45;;;;;;;17.77;11.40;;;;;;;21.98;48.46;102147.38;5049574;28;20044;-50
2022/06/04 00:25:14;;;;;;;15.23;10.70;;;;;;;21.97;48.67;102150.22;5083462;28;20676;-48
2022/06/04 00:27:41;;;;;;;15.75;10.35;;;;;;;21.95;48.63;102142.28;5079556;28;20051;-46
2022/06/04 00:30:08;;;;;;;15.65;10.32;;;;;;;21.96;48.71;102146.69;5080227;28;20044;-46
2022/06/04 00:32:35;;;;;;;15.88;10.75;;;;;;;21.95;48.61;102145.00;5079920;28;20461;-49
2022/06/04 00:35:03;;;;;;;14.50;9.07;;;;;;;21.92;48.61;102150.69;5076559;28;20164;-45
2022/06/04 00:37:36;;;;;;;16.38;10.20;;;;;;;21.93;48.82;102149.66;5083026;28;20066;-45
2022/06/04 00:40:04;;;;;;;14.60;10.10;;;;;;;21.93;48.43;102146.97;5080156;28;20183;-46
2022/06/04 00:42:31;;;;;;;15.80;10.18;;;;;;;21.91;48.89;102141.72;5077738;28;20048;-45
2022/06/04 00:45:21;;;;;;;14.13;9.60;;;;;;;21.89;48.85;102141.00;5080501;28;20051;-46
2022/06/04 00:47:49;;;;;;;14.75;9.57;;;;;;;21.90;48.69;102141.84;5077573;28;20036;-47
2022/06/04 00:50:19;;;;;;;14.07;9.48;;;;;;;21.87;48.82;102144.84;5077948;28;20420;-47
2022/06/04 00:52:49;;;;;;;14.93;10.00;;;;;;;21.86;48.94;102143.16;5079588;28;20047;-47
2022/06/04 00:55:17;;;;;;;15.02;9.98;;;;;;;21.84;48.41;102143.31;5079359;28;20062;-47
2022/06/04 00:57:56;;;;;;;14.82;9.35;;;;;;;21.85;48.94;102144.16;5077120;28;20044;-45
2022/06/04 01:00:27;;;;;;;14.45;9.15;;;;;;;21.83;48.96;102151.53;5080022;28;20052;-47
2022/06/04 01:03:24;;;;;;;15.80;9.30;;;;;;;21.82;48.77;102158.78;5077988;28;20215;-50
2022/06/04 01:05:54;;;;;;;15.15;9.38;;;;;;;21.79;48.67;102145.59;5079881;28;20044;-48
2022/06/04 01:08:23;;;;;;;12.60;8.60;;;;;;;21.80;48.89;102151.84;5076449;28;20048;-50
2022/06/04 01:11:12;;;;;;;14.02;9.15;;;;;;;21.78;48.87;102153.84;5073141;28;20055;-50
2022/06/04 01:13:57;;;;;;;14.02;9.45;;;;;;;21.77;48.83;102144.88;5077644;28;20172;-47
2022/06/04 01:16:37;;;;;;;13.40;8.73;;;;;;;21.77;48.84;102142.19;5079926;28;20048;-48
2022/06/04 01:19:25;;;;;;;12.48;8.45;;;;;;;21.76;49.11;102136.94;5081560;28;20056;-45
2022/06/04 01:22:15;;;;;;;15.15;8.70;;;;;;;21.75;48.72;102140.63;5075867;28;20044;-46
2022/06/04 01:25:21;;;;;;;12.73;8.70;;;;;;;21.73;49.08;102148.03;5077843;28;20513;-46
2022/06/04 01:28:00;;;;;;;12.50;8.40;;;;;;;21.73;49.02;102161.53;5077566;28;20391;-46
2022/06/04 01:30:34;;;;;;;11.20;7.70;;;;;;;21.72;49.02;102165.22;5076499;28;20135;-46
2022/06/04 01:33:13;;;;;;;12.43;8.15;;;;;;;21.69;49.19;102183.41;5079115;28;20059;-47
2022/06/04 01:35:53;;;;;;;11.73;7.68;;;;;;;21.68;49.12;102187.09;5081321;28;20409;-47
2022/06/04 01:38:30;;;;;;;11.18;7.85;;;;;;;21.68;48.93;102187.09;5081791;28;20123;-46
2022/06/04 01:41:07;;;;;;;13.63;8.07;;;;;;;21.66;48.92;102180.97;5077505;28;20048;-46
2022/06/04 01:43:59;;;;;;;11.73;7.63;;;;;;;21.62;49.38;102176.88;5077397;28;20603;-45
2022/06/04 01:46:37;;;;;;;10.95;7.78;;;;;;;21.61;49.15;102183.28;5077181;28;20052;-48
2022/06/04 01:49:18;;;;;;;11.57;7.15;;;;;;;21.60;49.46;102194.22;5075774;28;20048;-47
2022/06/04 01:51:47;;;;;;;10.77;7.30;;;;;;;21.58;49.22;102202.44;5079355;28;20051;-47
2022/06/04 01:54:22;;;;;;;11.75;7.55;;;;;;;21.58;49.17;102207.00;5077871;28;20525;-46
2022/06/04 01:56:53;;;;;;;10.80;7.28;;;;;;;21.57;49.35;102210.69;5076153;28;20097;-46
2022/06/04 01:59:29;;;;;;;11.63;7.60;;;;;;;21.53;49.42;102210.13;5080708;28;20039;-46
2022/06/04 02:01:59;;;;;;;12.40;7.57;;;;;;;21.53;49.54;102206.56;5080838;28;21605;-48
2022/06/04 02:04:31;;;;;;;9.43;6.53;;;;;;;21.52;49.64;102207.59;5077921;28;20095;-47
2022/06/04 02:07:30;;;;;;;8.75;6.20;;;;;;;21.50;49.62;102194.22;5080439;28;20036;-46
2022/06/04 02:10:18;;;;;;;9.55;6.22;;;;;;;21.49;49.69;102175.50;5075911;28;20044;-47
2022/06/04 02:12:48;;;;;;;10.85;7.22;;;;;;;21.49;49.30;102170.09;5077174;28;20050;-45
2022/06/04 02:15:18;;;;;;;10.38;7.47;;;;;;;21.47;49.62;102180.16;5077296;28;20052;-48
2022/06/04 02:17:49;;;;;;;10.55;7.18;;;;;;;21.47;49.81;102181.03;5079167;28;20040;-48
2022/06/04 02:20:16;;;;;;;10.27;6.50;;;;;;;21.46;49.43;102170.38;5079258;28;20051;-46
2022/06/04 02:22:43;;;;;;;9.75;6.25;;;;;;;21.44;49.69;102175.94;5076098;28;20453;-46
2022/06/04 02:25:12;;;;;;;10.77;6.60;;;;;;;21.43;49.42;102182.31;5078960;28;20396;-47
2022/06/04 02:27:40;;;;;;;9.50;6.70;;;;;;;21.42;49.52;102191.38;5077978;28;20063;-47
2022/06/04 02:30:09;;;;;;;10.95;6.38;;;;;;;21.39;49.95;102187.16;5075704;28;20047;-45
2022/06/04 02:32:57;;;;;;;8.85;6.60;;;;;;;21.39;49.63;102186.31;5075120;28;20649;-46
2022/06/04 02:35:39;;;;;;;8.93;5.82;;;;;;;21.38;50.12;102179.19;5075979;28;20049;-46
2022/06/04 02:38:27;;;;;;;9.25;5.88;;;;;;;21.37;49.70;102180.19;5079306;28;20103;-46
2022/06/04 02:41:07;;;;;;;9.60;6.38;;;;;;;21.36;49.91;102184.72;5077056;28;20059;-45
2022/06/04 02:43:50;;;;;;;8.45;5.60;;;;;;;21.35;50.15;102184.88;5074753;28;21591;-46
2022/06/04 02:46:52;;;;;;;9.70;6.03;;;;;;;21.33;49.95;102187.72;5077069;28;20044;-44
2022/06/04 02:49:30;;;;;;;8.25;5.63;;;;;;;21.33;49.80;102185.00;5077646;28;20075;-48
2022/06/04 02:51:57;;;;;;;8.90;5.78;;;;;;;21.33;49.69;102178.78;5076365;28;20048;-45
2022/06/04 02:54:30;;;;;;;9.77;5.38;;;;;;;21.31;50.10;102172.66;5074600;28;20044;-47
2022/06/04 02:56:58;;;;;;;10.05;5.57;;;;;;;21.31;50.24;102167.25;5075674;28;20036;-47
2022/06/04 02:59:27;;;;;;;6.95;5.05;;;;;;;21.28;50.41;102159.44;5073530;28;20063;-47
2022/06/04 03:01:59;;;;;;;9.43;5.38;;;;;;;21.28;49.94;102159.44;5075454;28;20052;-48
2022/06/04 03:04:26;;;;;;;7.93;5.00;;;;;;;21.27;49.96;102161.28;5073290;28;20051;-45
2022/06/04 03:06:53;;;;;;;8.65;5.28;;;;;;;21.28;49.90;102162.13;5077599;28;20175;-47
2022/06/04 03:09:20;;;;;;;7.55;5.32;;;;;;;21.25;50.11;102157.03;5074907;28;20055;-49
2022/06/04 03:11:49;;;;;;;7.22;4.85;;;;;;;21.24;50.20;102158.88;5075046;28;20067;-49
2022/06/04 03:14:17;;;;;;;8.45;5.38;;;;;;;21.26;49.85;102156.03;5076037;28;20048;-45
2022/06/04 03:16:48;;;;;;;7.32;4.68;;;;;;;21.21;49.97;102140.28;5076875;28;20046;-49
2022/06/04 03:19:16;;;;;;;6.95;4.68;;;;;;;21.19;50.34;102140.44;5076339;28;20063;-46
2022/06/04 03:21:43;;;;;;;8.00;4.68;;;;;;;21.19;50.31;102136.88;5077747;28;20509;-45
2022/06/04 03:24:12;;;;;;;6.40;4.25;;;;;;;21.19;50.01;102131.50;5080298;28;20040;-46
2022/06/04 03:26:40;;;;;;;6.22;4.28;;;;;;;21.17;50.31;102134.31;5075306;28;20541;-47
2022/06/04 03:29:06;;;;;;;6.20;4.30;;;;;;;21.16;50.35;102132.63;5072522;28;20059;-46
2022/06/04 03:31:33;;;;;;;6.72;4.38;;;;;;;21.16;50.54;102134.47;5075274;28;20179;-47
2022/06/04 03:34:00;;;;;;;10.40;4.55;;;;;;;21.15;50.11;102135.47;5081651;28;20044;-48
2022/06/04 03:36:26;;;;;;;6.43;4.40;;;;;;;21.14;50.32;102145.38;5081427;28;20050;-47
2022/06/04 03:38:57;;;;;;;6.80;4.40;;;;;;;21.12;50.55;102142.00;5078573;28;20047;-48
2022/06/04 03:41:24;;;;;;;6.82;4.40;;;;;;;21.13;50.51;102140.13;5076633;28;20046;-46
2022/06/04 03:43:54;;;;;;;8.20;4.55;;;;;;;21.12;50.31;102144.69;5076362;28;20051;-47
2022/06/04 03:46:24;;;;;;;8.40;4.30;;;;;;;21.11;50.02;102151.09;5073099;28;20131;-45
2022/06/04 03:48:56;;;;;;;8.35;4.30;;;;;;;21.11;50.45;102143.00;5073276;28;20131;-47
2022/06/04 03:51:25;;;;;;;6.38;3.80;;;;;;;21.11;49.96;102147.53;5077122;28;20134;-46
2022/06/04 03:53:51;;;;;;;6.53;4.05;;;;;;;21.09;50.69;102150.34;5075961;28;21411;-48
2022/06/04 03:56:18;;;;;;;7.95;4.00;;;;;;;21.08;50.12;102143.28;5072931;28;20040;-43
2022/06/04 03:58:45;;;;;;;5.65;3.83;;;;;;;21.08;50.11;102147.81;5076701;28;20036;-47
2022/06/04 04:01:18;;;;;;;6.72;3.85;;;;;;;21.08;50.53;102155.91;5077225;28;20043;-47
2022/06/04 04:03:44;;;;;;;7.72;3.88;;;;;;;21.08;50.18;102164.84;5075721;28;20052;-47
2022/06/04 04:06:17;;;;;;;6.28;3.53;;;;;;;21.07;50.34;102156.91;5073331;28;20045;-48
2022/06/04 04:08:44;;;;;;;5.30;3.77;;;;;;;21.08;50.45;102172.91;5077687;28;20237;-44
2022/06/04 04:11:12;;;;;;;5.30;3.78;;;;;;;21.07;50.42;102173.94;5074974;28;20497;-44
2022/06/04 04:13:40;;;;;;;7.85;3.92;;;;;;;21.07;50.33;102182.00;5073740;28;20060;-46
2022/06/04 04:16:08;;;;;;;9.63;3.53;;;;;;;21.07;50.68;102171.22;5073235;28;20044;-49
2022/06/04 04:18:36;;;;;;;4.70;3.42;;;;;;;21.07;50.44;102170.38;5075192;28;20048;-46
2022/06/04 04:21:08;;;;;;;6.63;3.80;;;;;;;21.07;50.67;102160.44;5074114;28;20044;-44
2022/06/04 04:23:35;;;;;;;6.03;3.78;;;;;;;21.08;50.73;102162.13;5073430;28;20119;-46
2022/06/04 04:26:03;;;;;;;6.88;3.83;;;;;;;21.07;50.42;102155.06;5075161;28;20069;-49
2022/06/04 04:28:30;;;;;;;6.28;4.05;;;;;;;21.07;50.76;102146.13;5075415;28;20541;-46
2022/06/04 04:30:57;;;;;;;6.63;3.70;;;;;;;21.07;50.51;102152.34;5077620;28;20040;-46
2022/06/04 04:33:25;;;;;;;6.07;3.85;;;;;;;21.08;50.92;102161.28;5075291;28;20588;-48
2022/06/04 04:35:51;;;;;;;5.22;3.53;;;;;;;21.08;50.86;102161.28;5075957;28;20044;-48
2022/06/04 04:38:18;;;;;;;5.25;3.53;;;;;;;21.09;50.29;102162.97;5074313;28;20074;-46
2022/06/04 04:40:45;;;;;;;6.30;3.30;;;;;;;21.09;50.24;102173.78;5074960;28;20040;-45
2022/06/04 04:43:12;;;;;;;5.28;3.38;;;;;;;21.08;50.68;102164.84;5077448;28;20045;-46
2022/06/04 04:45:38;;;;;;;5.82;3.28;;;;;;;21.09;50.41;102158.44;5077916;28;20501;-49
2022/06/04 04:48:05;;;;;;;5.65;3.75;;;;;;;21.09;50.15;102169.22;5075636;28;20047;-44
2022/06/04 04:50:37;;;;;;;4.93;3.15;;;;;;;21.11;50.54;102164.56;5073504;28;20048;-46
2022/06/04 04:53:09;;;;;;;5.90;3.72;;;;;;;21.11;50.45;102159.16;5072456;28;20128;-49
2022/06/04 04:55:36;;;;;;;4.90;3.25;;;;;;;21.13;50.21;102154.47;5075852;28;20082;-46
2022/06/04 04:58:03;;;;;;;5.97;3.30;;;;;;;21.13;50.49;102159.88;5071478;28;20044;-45
2022/06/04 05:00:31;;;;;;;3.47;2.65;;;;;;;21.13;50.75;102167.09;5080365;28;20688;-46
2022/06/04 05:02:59;;;;;;;6.82;3.10;;;;;;;21.13;50.67;102176.03;5079348;28;20048;-46
2022/06/04 05:05:26;;;;;;;4.85;3.60;;;;;;;21.14;50.00;102177.72;5081752;28;20048;-46
2022/06/04 05:07:52;;;;;;;5.30;3.20;;;;;;;21.15;50.48;102173.22;5078755;28;20036;-45
2022/06/04 05:10:19;;;;;;;5.28;3.80;;;;;;;21.15;50.33;102178.63;5075645;28;20055;-47
2022/06/04 05:12:45;;;;;;;5.60;3.03;;;;;;;21.15;50.26;102173.22;5077938;28;20055;-48
2022/06/04 05:15:12;;;;;;;4.85;3.30;;;;;;;21.15;50.23;102179.47;5078149;28;20086;-47
2022/06/04 05:17:38;;;;;;;5.28;2.95;;;;;;;21.15;50.57;102175.91;5077359;28;20059;-44
2022/06/04 05:20:05;;;;;;;5.75;2.85;;;;;;;21.15;49.89;102184.84;5081581;28;20048;-48
2022/06/04 05:22:32;;;;;;;4.53;2.90;;;;;;;21.15;50.48;102179.47;5082106;28;20044;-47
2022/06/04 05:24:59;;;;;;;4.47;2.90;;;;;;;21.16;50.12;102183.84;5081756;28;20050;-47
2022/06/04 05:27:25;;;;;;;3.97;2.67;;;;;;;21.15;50.43;102182.16;5075762;28;20048;-47
2022/06/04 05:29:52;;;;;;;3.83;2.80;;;;;;;21.15;50.50;102184.00;5081012;28;20048;-45
2022/06/04 05:32:18;;;;;;;4.63;2.83;;;;;;;21.14;50.33;102177.72;5080218;28;20085;-47
2022/06/04 05:34:45;;;;;;;4.85;2.92;;;;;;;21.14;50.30;102193.91;5077663;28;20454;-45
2022/06/04 05:37:11;;;;;;;4.47;2.90;;;;;;;21.15;50.26;102192.94;5085248;28;20048;-47
2022/06/04 05:39:38;;;;;;;6.55;3.08;;;;;;;21.15;49.99;102189.41;5074902;28;20045;-48
2022/06/04 05:42:05;;;;;;;3.70;2.95;;;;;;;21.14;50.37;102193.91;5073592;28;20048;-46
2022/06/04 05:44:32;;;;;;;4.47;2.58;;;;;;;21.14;50.37;102188.50;5078841;28;20051;-48
2022/06/04 05:46:59;;;;;;;4.68;2.67;;;;;;;21.15;50.22;102198.34;5076696;28;20048;-45
2022/06/04 05:49:26;;;;;;;4.03;2.63;;;;;;;21.15;50.64;102205.56;5076681;28;20071;-48
2022/06/04 05:51:52;;;;;;;6.05;2.53;;;;;;;21.15;50.06;102203.72;5075297;28;20051;-46
2022/06/04 05:54:19;;;;;;;5.72;2.55;;;;;;;21.17;50.27;102208.97;5079132;28;20051;-47
2022/06/04 05:56:48;;;;;;;6.13;3.10;;;;;;;21.17;50.43;102215.22;5074015;28;20066;-45
2022/06/04 05:59:17;;;;;;;6.00;2.60;;;;;;;21.19;49.97;102209.69;5078552;28;20036;-48
2022/06/04 06:01:44;;;;;;;4.55;2.55;;;;;;;21.20;50.30;102217.63;5079594;28;20043;-47
2022/06/04 06:04:13;;;;;;;4.55;2.60;;;;;;;21.21;50.34;102215.78;5072609;28;20091;-46
2022/06/04 06:06:47;;;;;;;3.55;2.17;;;;;;;21.25;50.06;102224.44;5073405;28;20048;-48
2022/06/04 06:09:18;;;;;;;4.25;2.45;;;;;;;21.27;49.91;102217.06;5079180;28;20047;-46
2022/06/04 06:11:45;;;;;;;3.95;2.47;;;;;;;21.28;49.88;102221.47;5078100;28;20040;-49
2022/06/04 06:14:12;;;;;;;2.92;2.53;;;;;;;21.30;50.04;102214.06;5074626;28;20044;-49
2022/06/04 06:16:43;;;;;;;3.70;2.50;;;;;;;21.30;49.70;102211.38;5078594;28;20427;-47
2022/06/04 06:19:10;;;;;;;4.35;3.10;;;;;;;21.30;49.90;102209.53;5079625;28;20056;-46
2022/06/04 06:21:38;;;;;;;6.30;2.28;;;;;;;21.31;49.60;102213.09;5079270;28;20040;-48
2022/06/04 06:24:08;;;;;;;5.15;2.83;;;;;;;21.31;49.79;102222.03;5075477;28;20424;-46
2022/06/04 06:26:43;;;;;;;6.75;2.78;;;;;;;21.32;49.86;102221.06;5077296;28;20075;-47
2022/06/04 06:29:09;;;;;;;4.10;2.72;;;;;;;21.33;49.38;102217.38;5078228;28;20044;-45
2022/06/04 06:31:36;;;;;;;4.43;2.97;;;;;;;21.36;49.68;102221.66;5076880;28;20055;-44
2022/06/04 06:34:03;;;;;;;5.05;2.42;;;;;;;21.35;49.63;102220.78;5076903;28;20128;-44
2022/06/04 06:36:30;;;;;;;5.63;3.30;;;;;;;21.37;49.71;102228.72;5075290;28;20156;-44
2022/06/04 06:38:56;;;;;;;6.28;3.08;;;;;;;21.37;49.38;102234.97;5078710;28;20323;-44
2022/06/04 06:41:25;;;;;;;5.57;2.97;;;;;;;21.36;49.63;102235.13;5074109;28;20147;-45
2022/06/04 06:43:52;;;;;;;5.80;3.30;;;;;;;21.37;49.29;102234.13;5073411;28;20054;-47
2022/06/04 06:46:23;;;;;;;5.85;2.95;;;;;;;21.36;49.09;102230.59;5077340;28;20048;-46
2022/06/04 06:48:59;;;;;;;3.83;2.58;;;;;;;21.36;49.14;102244.06;5071238;28;20063;-44
2022/06/04 06:51:29;;;;;;;4.72;3.03;;;;;;;21.36;49.06;102238.69;5073965;28;20040;-47
2022/06/04 06:53:56;;;;;;;6.03;3.00;;;;;;;21.36;49.08;102233.28;5074861;28;20127;-48
2022/06/04 06:56:26;;;;;;;4.65;2.97;;;;;;;21.36;49.33;102235.13;5080958;28;20045;-45
2022/06/04 06:58:53;;;;;;;5.47;3.08;;;;;;;21.36;49.49;102235.97;5076518;28;20052;-43
2022/06/04 07:01:21;;;;;;;5.00;3.38;;;;;;;21.36;49.26;102227.88;5080747;28;20123;-46
2022/06/04 07:03:48;;;;;;;5.93;3.22;;;;;;;21.36;49.44;102227.03;5077177;28;20097;-47
2022/06/04 07:06:26;;;;;;;5.20;3.30;;;;;;;21.37;49.01;102231.44;5072636;28;20076;-44
2022/06/04 07:08:53;;;;;;;4.43;3.38;;;;;;;21.37;49.28;102240.38;5081338;28;20040;-45
2022/06/04 07:11:20;;;;;;;6.38;3.20;;;;;;;21.38;49.14;102239.38;5075984;28;20073;-48
2022/06/04 07:13:46;;;;;;;5.50;3.38;;;;;;;21.39;49.29;102237.56;5074980;28;20159;-45
2022/06/04 07:16:13;;;;;;;6.95;4.20;;;;;;;21.38;49.11;102236.66;5076856;28;20044;-46
2022/06/04 07:18:39;;;;;;;8.13;4.45;;;;;;;21.40;49.62;102241.94;5074193;28;20049;-45
2022/06/04 07:21:06;;;;;;;8.20;4.55;;;;;;;21.40;49.30;102239.25;5075071;28;20051;-46
2022/06/04 07:23:35;;;;;;;7.45;4.25;;;;;;;21.40;49.76;102245.50;5078019;28;20041;-48
2022/06/04 07:26:02;;;;;;;9.40;4.43;;;;;;;21.41;49.37;102246.34;5076566;28;20050;-47
2022/06/04 07:28:29;;;;;;;10.05;4.80;;;;;;;21.40;49.44;102244.63;5075294;28;20134;-47
2022/06/04 07:30:56;;;;;;;8.48;5.20;;;;;;;21.41;49.25;102238.25;5075607;28;20062;-45
2022/06/04 07:33:23;;;;;;;7.18;4.45;;;;;;;21.41;49.19;102240.94;5074834;28;20080;-45
2022/06/04 07:35:50;;;;;;;10.98;6.00;;;;;;;21.42;49.59;102235.38;5072805;28;21083;-46
2022/06/04 07:38:17;;;;;;;10.15;5.63;;;;;;;21.43;49.56;102231.72;5075050;28;20045;-45
2022/06/04 07:40:45;;;;;;;9.75;5.68;;;;;;;21.45;49.40;102228.88;5069520;28;20140;-47
2022/06/04 07:43:13;;;;;;;13.52;8.07;;;;;;;21.46;49.16;102233.25;5072872;28;20049;-44
2022/06/04 07:45:40;;;;;;;17.58;10.13;;;;;;;21.48;49.36;102231.28;5072801;28;20052;-46
2022/06/04 07:48:08;;;;;;;22.23;12.52;;;;;;;21.49;49.70;102237.53;5074300;28;20044;-46
2022/06/04 07:50:36;;;;;;;26.20;15.50;;;;;;;21.51;49.46;102232.84;5075090;28;20085;-48
2022/06/04 07:53:03;;;;;;;24.65;14.82;;;;;;;21.52;49.65;102240.81;5069509;28;20332;-48
2022/06/04 07:55:29;;;;;;;25.02;13.20;;;;;;;;;;5070017;28;20056;-48
2022/06/04 07:57:56;;;;;;;22.60;13.23;;;;;;;21.56;49.64;102244.06;5072821;28;20467;-46
2022/06/04 08:00:24;;;;;;;25.17;13.63;;;;;;;21.58;49.76;102240.22;5072518;28;20348;-45
2022/06/04 08:02:52;;;;;;;22.08;12.10;;;;;;;21.59;49.52;102239.25;5072569;28;20131;-45
2022/06/04 08:05:23;;;;;;;21.35;12.57;;;;;;;21.61;49.73;102234.53;5070297;28;20075;-48
2022/06/04 08:07:51;;;;;;;21.45;12.45;;;;;;;21.63;49.22;102239.81;5073945;28;20496;-46
2022/06/04 08:10:17;;;;;;;19.30;12.38;;;;;;;21.65;49.48;102235.09;5075489;28;20384;-46
2022/06/04 08:13:02;;;;;;;23.45;12.88;;;;;;;21.66;49.13;102234.09;5070957;28;20171;-45
2022/06/04 08:15:28;;;;;;;20.38;12.07;;;;;;;21.68;49.23;102230.28;5074796;28;20143;-51
2022/06/04 08:17:55;;;;;;;19.80;11.73;;;;;;;21.68;49.20;102222.19;5069681;28;21775;-48
2022/06/04 08:20:22;;;;;;;20.25;11.88;;;;;;;21.70;49.02;102227.44;5075160;28;20135;-47
2022/06/04 08:22:49;;;;;;;20.15;12.25;;;;;;;21.71;49.28;102222.88;5074446;28;20037;-47
2022/06/04 08:25:16;;;;;;;21.48;12.32;;;;;;;21.71;49.00;102229.16;5073675;28;20176;-46
2022/06/04 08:27:44;;;;;;;20.67;12.10;;;;;;;21.73;49.04;102231.69;5071798;28;20049;-47
2022/06/04 08:30:12;;;;;;;22.33;13.48;;;;;;;21.73;49.14;102237.94;5070451;28;20293;-45
2022/06/04 08:32:40;;;;;;;22.73;13.13;;;;;;;21.75;49.19;102244.06;5072170;28;20049;-47
2022/06/04 08:35:07;;;;;;;22.55;12.75;;;;;;;21.75;49.03;102241.38;5076307;28;20133;-49
2022/06/04 08:37:33;;;;;;;22.33;13.18;;;;;;;21.75;49.08;102241.38;5074132;28;20147;-49
2022/06/04 08:40:00;;;;;;;22.00;12.90;;;;;;;21.77;49.07;102235.81;5078060;28;20046;-46
2022/06/04 08:42:40;;;;;;;23.67;13.30;;;;;;;21.77;48.87;102225.00;5077248;28;20097;-48
2022/06/04 08:45:10;;;;;;;22.80;13.02;;;;;;;21.78;49.08;102232.09;5074887;28;20052;-46
2022/06/04 08:47:43;;;;;;;19.98;12.45;;;;;;;21.79;49.17;102223.00;5075524;28;20048;-51
2022/06/04 08:50:09;;;;;;;22.73;14.07;;;;;;;21.79;48.83;102231.97;5075386;28;20037;-46
2022/06/04 08:52:41;;;;;;;22.30;13.38;;;;;;;21.79;48.66;102240.06;5076791;28;20048;-47
2022/06/04 08:58:32;;;;;;;23.20;13.18;;;;;;;21.81;48.59;102242.63;5076370;28;20052;-46
2022/06/04 09:01:13;;;;;;;25.83;13.60;;;;;;;21.82;48.68;102242.47;5075484;28;20082;-47
2022/06/04 09:04:01;;;;;;;22.42;13.40;;;;;;;21.82;48.67;102242.47;5077823;28;20048;-47
2022/06/04 09:07:01;;;;;;;21.73;13.30;;;;;;;21.84;48.64;102245.88;5077769;28;20701;-46
2022/06/04 09:10:01;;;;;;;22.52;13.80;;;;;;;21.85;48.88;102242.19;5074108;28;20045;-46
2022/06/04 09:12:38;;;;;;;21.45;13.40;;;;;;;21.86;48.68;102260.06;5075571;28;20047;-45
2022/06/04 09:15:29;;;;;;;23.38;14.10;;;;;;;21.89;48.83;102265.19;5071626;28;20378;-47
2022/06/04 09:17:58;;;;;;;23.75;14.60;;;;;;;21.92;48.53;102264.06;5075839;28;20130;-44
2022/06/04 09:20:49;;;;;;;26.55;15.05;;;;;;;21.91;48.67;102265.91;5074192;28;20068;-44
2022/06/04 09:23:29;;;;;;;26.23;14.60;;;;;;;21.93;48.84;102266.59;5076748;28;20051;-45
2022/06/04 09:26:13;;;;;;;24.15;14.18;;;;;;;21.94;49.03;102268.28;5074394;28;20060;-45
2022/06/04 09:28:56;;;;;;;23.20;13.93;;;;;;;21.97;48.67;102263.63;5080008;28;20131;-48
2022/06/04 09:31:51;;;;;;;24.27;14.23;;;;;;;21.98;48.80;102268.00;5077427;28;20045;-44
2022/06/04 09:34:32;;;;;;;22.30;13.82;;;;;;;21.99;48.88;102262.50;5073984;28;20044;-47
2022/06/04 09:36:59;;;;;;;23.95;13.73;;;;;;;22.02;48.61;102264.03;5075550;28;20082;-44
2022/06/04 09:39:31;;;;;;;28.40;14.23;;;;;;;22.02;48.88;102261.31;5075219;28;20082;-44
2022/06/04 09:42:15;;;;;;;27.63;14.32;;;;;;;22.03;48.57;102272.00;5075742;28;20044;-45
2022/06/04 09:44:52;;;;;;;27.83;14.57;;;;;;;22.05;48.81;102267.28;5071497;28;20497;-47
2022/06/04 09:47:25;;;;;;;33.00;16.27;;;;;;;22.07;48.90;102268.00;5073944;28;20045;-49
2022/06/04 09:49:59;;;;;;;25.83;14.13;;;;;;;22.08;49.05;102258.91;5078688;28;21810;-44
2022/06/04 09:52:32;;;;;;;;;;;;;;;22.09;48.91;102260.59;5079187;28;20043;-48
2022/06/04 09:55:13;;;;;;;31.80;15.00;;;;;;;22.12;48.84;102257.63;5073428;28;19924;-47
2022/06/04 09:57:40;;;;;;;33.65;15.40;;;;;;;22.14;49.07;102257.50;5074004;28;20573;-47
2022/06/04 10:00:23;;;;;;;35.05;17.05;;;;;;;22.13;48.90;102250.38;5078247;28;20037;-47
2022/06/04 10:03:04;;;;;;;29.35;14.52;;;;;;;22.16;48.81;102255.50;5074368;28;20601;-47
2022/06/04 10:05:32;;;;;;;31.48;15.20;;;;;;;22.17;49.14;102251.81;5074403;28;20391;-48
2022/06/04 10:07:59;;;;;;;30.30;15.23;;;;;;;22.17;49.00;102260.75;5073864;28;20423;-48
2022/06/04 10:10:44;;;;;;;29.63;15.50;;;;;;;22.16;48.85;102261.75;5076369;28;20032;-45
2022/06/04 10:13:42;;;;;;;31.30;16.40;;;;;;;22.18;49.05;102273.25;5075173;28;20044;-48
2022/06/04 10:16:17;;;;;;;30.38;14.68;;;;;;;22.22;48.90;102272.97;5080783;28;20186;-49
2022/06/04 10:18:58;;;;;;;28.45;14.52;;;;;;;22.21;48.74;102257.75;5078553;28;20427;-49
2022/06/04 10:21:30;;;;;;;29.65;14.35;;;;;;;22.24;49.05;102268.28;5072353;28;20057;-47
2022/06/04 10:24:07;;;;;;;31.27;13.93;;;;;;;22.22;48.99;102265.72;5072260;28;20044;-46
2022/06/04 10:27:09;;;;;;;26.38;14.52;;;;;;;22.23;48.95;102263.84;5070154;28;20048;-47
2022/06/04 10:29:35;;;;;;;28.67;14.20;;;;;;;22.25;48.87;102264.56;5072143;28;20055;-45
2022/06/04 10:32:10;;;;;;;28.02;14.07;;;;;;;22.23;48.73;102267.44;5073280;28;20142;-47
2022/06/04 10:34:59;;;;;;;24.17;13.05;;;;;;;22.25;48.96;102272.69;5074000;28;20056;-47
2022/06/04 10:37:43;;;;;;;29.85;14.55;;;;;;;22.25;48.76;102269.97;5071278;28;20061;-47
2022/06/04 10:40:34;;;;;;;22.10;13.02;;;;;;;22.25;48.93;102260.03;5074122;28;20099;-48
2022/06/04 10:43:52;;;;;;;24.60;13.85;;;;;;;22.25;48.86;102259.16;5072781;28;20772;-47
2022/06/04 10:46:31;;;;;;;26.17;13.40;;;;;;;22.26;48.76;102266.28;5072191;28;20048;-47
2022/06/04 10:49:09;;;;;;;21.23;12.65;;;;;;;22.26;48.67;102266.28;5077229;28;20135;-45
2022/06/04 10:52:18;;;;;;;24.88;13.68;;;;;;;22.25;49.02;102259.16;5072986;28;20141;-46
2022/06/04 10:55:11;;;;;;;23.55;13.20;;;;;;;22.27;48.58;102252.63;5070759;28;20052;-47
2022/06/04 10:57:46;;;;;;;20.50;11.52;;;;;;;22.27;48.61;102258.03;5077034;28;20128;-49
2022/06/04 11:00:18;;;;;;;22.17;12.38;;;;;;;22.28;48.58;102253.47;5073201;28;20046;-48
2022/06/04 11:03:11;;;;;;;21.95;12.48;;;;;;;22.28;48.89;102251.63;5072069;28;20155;-46
2022/06/04 11:05:47;;;;;;;21.08;12.40;;;;;;;22.30;48.68;102254.16;5069026;28;20060;-49
2022/06/04 11:08:24;;;;;;;22.50;12.10;;;;;;;22.28;48.59;102257.03;5074781;28;20059;-46
2022/06/04 11:10:57;;;;;;;22.35;11.98;;;;;;;22.30;48.54;102256.88;5072109;28;20139;-46
2022/06/04 11:13:31;;;;;;;22.92;12.27;;;;;;;22.31;48.52;102253.16;5071650;28;20144;-45
2022/06/04 11:16:09;;;;;;;22.80;12.02;;;;;;;22.32;48.66;102249.50;5071441;28;20044;-46
2022/06/04 11:18:53;;;;;;;19.73;11.70;;;;;;;22.32;48.46;102254.88;5074749;28;20527;-45
2022/06/04 11:21:33;;;;;;;19.10;11.97;;;;;;;22.33;48.57;102256.59;5073804;28;20047;-47
2022/06/04 11:24:26;;;;;;;16.30;10.68;;;;;;;22.33;48.63;102251.19;5069638;28;20042;-45
2022/06/04 11:27:00;;;;;;;18.50;10.38;;;;;;;22.35;48.46;102259.97;5070472;28;20050;-46
2022/06/04 11:29:27;;;;;;;18.40;10.88;;;;;;;22.35;48.62;102265.38;5076520;28;20070;-47
2022/06/04 11:32:27;;;;;;;16.80;11.32;;;;;;;22.35;48.66;102255.44;5077503;28;20055;-47
2022/06/04 11:35:27;;;;;;;17.75;10.77;;;;;;;22.36;48.43;102257.16;5073810;28;20139;-47
2022/06/04 11:38:20;;;;;;;19.80;10.93;;;;;;;22.36;48.43;102259.84;5074318;28;20039;-48
2022/06/04 11:41:28;;;;;;;14.30;9.73;;;;;;;22.36;48.26;102257.16;5071747;28;20130;-48
2022/06/04 11:44:13;;;;;;;15.85;9.38;;;;;;;22.37;48.56;102252.59;5035929;28;20052;-46
2022/06/04 11:47:15;;;;;;;17.38;10.85;;;;;;;22.37;48.52;102258.00;5070930;28;20040;-44
2022/06/04 11:49:57;;;;;;;15.68;9.50;;;;;;;22.39;48.49;102258.69;5073461;28;20084;-49
2022/06/04 11:52:28;;;;;;;18.45;10.32;;;;;;;22.39;48.59;102255.97;5070955;28;20047;-49
2022/06/04 11:55:13;;;;;;;15.73;9.55;;;;;;;22.38;48.24;102256.97;5070367;28;20415;-50
2022/06/04 11:57:55;;;;;;;16.17;9.38;;;;;;;22.40;48.52;102257.69;5071084;28;20040;-49